Time;durP1;ratioP1;P1;durP2;ratioP2;P2;SDS_P1;SDS_P2;PMS_P1;PMS_P2;Temp;Humidity;BMP_temperature;BMP_pressure;BME280_temperature;BME280_humidity;BME280_pressure;Samples;Min_cycle;Max_cycle;Signal;HPM_P1;HPM_P2
2023/01/01 00:01:07;;;;;;;;;;;;;;;8.40;100.00;98384.72;5138132;28;19966;-60
2023/01/01 00:03:33;;;;;;;;;;;;;;;8.42;100.00;98371.19;5136550;28;19987;-60
2023/01/01 00:06:05;;;;;;;;;;;;;;;8.22;100.00;98373.44;5134660;28;19924;-59
2023/01/01 00:08:31;;;;;;;;;;;;;;;8.36;100.00;98380.13;5135393;28;19920;-60
2023/01/01 00:11:00;;;;;;;;;;;;;;;8.35;100.00;98374.00;5138018;28;19983;-61
2023/01/01 00:13:26;;;;;;;;;;;;;;;8.23;100.00;98377.72;5137245;28;19926;-61
2023/01/01 00:15:52;;;;;;;;;;;;;;;8.33;100.00;98378.75;5134326;28;19928;-60
2023/01/01 00:18:20;;;;;;;;;;;;;;;8.11;100.00;98375.88;5134514;28;19924;-60
2023/01/01 00:20:46;;;;;;;;;;;;;;;8.11;100.00;98375.06;5131736;28;19974;-60
2023/01/01 00:23:13;;;;;;;;;;;;;;;8.12;100.00;98376.69;5124248;28;19923;-60
2023/01/01 00:25:39;;;;;;;;;;;;;;;8.26;100.00;98378.06;5135014;27;19991;-60
2023/01/01 00:28:05;;;;;;;;;;;;;;;8.33;100.00;98386.72;5120557;28;20003;-59
2023/01/01 00:30:32;;;;;;;;;;;;;;;8.30;100.00;98389.84;5121400;28;19987;-60
2023/01/01 00:32:58;;;;;;;;;;;;;;;8.20;100.00;98400.25;5123647;28;19923;-60
2023/01/01 00:35:26;;;;;;;;;;;;;;;8.13;100.00;98415.56;5123121;28;20759;-60
2023/01/01 00:37:53;;;;;;;;;;;;;;;8.17;100.00;98400.72;5119612;28;19935;-59
2023/01/01 00:40:19;;;;;;;;;;;;;;;8.03;100.00;98402.03;5119830;28;19924;-61
2023/01/01 00:42:45;;;;;;;;;;;;;;;7.92;100.00;98401.00;5122829;28;20242;-60
2023/01/01 00:45:12;;;;;;;;;;;;;;;8.09;100.00;98401.09;5123163;28;19995;-61
2023/01/01 00:47:38;;;;;;;;;;;;;;;8.19;100.00;98403.16;5120922;28;20441;-60
2023/01/01 00:50:05;;;;;;;;;;;;;;;7.92;100.00;98400.22;5119694;28;20023;-60
2023/01/01 00:52:32;;;;;;;;;;;;;;;8.05;100.00;98387.47;5120760;28;19983;-59
2023/01/01 00:54:59;;;;;;;;;;;;;;;7.91;100.00;98395.94;5136484;27;19935;-60
2023/01/01 00:57:25;;;;;;;;;;;;;;;7.93;100.00;98396.50;5123048;28;20674;-59
2023/01/01 00:59:51;;;;;;;;;;;;;;;8.00;100.00;98405.19;5119508;28;20027;-61
2023/01/01 01:02:18;;;;;;;;;;;;;;;7.88;100.00;98407.03;5119428;28;19952;-59
2023/01/01 01:04:44;;;;;;;;;;;;;;;7.80;100.00;98404.75;5122329;28;19966;-60
2023/01/01 01:07:10;;;;;;;;;;;;;;;7.81;100.00;98398.38;5104677;28;19943;-59
2023/01/01 01:09:38;;;;;;;;;;;;;;;7.99;100.00;98401.69;5120768;28;20010;-59
2023/01/01 01:12:04;;;;;;;;;;;;;;;7.88;100.00;98402.53;5119567;28;19980;-60
2023/01/01 01:14:31;;;;;;;;;;;;;;;7.83;100.00;98397.09;5120173;28;20030;-60
2023/01/01 01:16:57;;;;;;;;;;;;;;;7.76;100.00;98398.28;5122510;28;19951;-60
2023/01/01 01:19:24;;;;;;;;;;;;;;;7.94;100.00;98406.09;5122436;28;19951;-61
2023/01/01 01:21:51;;;;;;;;;;;;;;;7.80;100.00;98404.75;5118880;28;19920;-60
2023/01/01 01:24:18;;;;;;;;;;;;;;;7.87;100.00;98416.06;5130277;27;19935;-60
2023/01/01 01:26:45;;;;;;;;;;;;;;;7.86;100.00;98415.25;5122757;27;19995;-60
2023/01/01 01:29:12;;;;;;;;;;;;;;;7.72;100.00;98418.38;5122327;28;19995;-59
2023/01/01 01:31:38;;;;;;;;;;;;;;;7.90;100.00;98411.09;5119716;28;19988;-60
2023/01/01 01:34:04;;;;;;;;;;;;;;;7.95;100.00;98429.00;5117650;28;19955;-60
2023/01/01 01:36:31;;;;;;;;;;;;;;;7.77;100.00;98415.84;5119519;28;19934;-60
2023/01/01 01:38:57;;;;;;;;;;;;;;;7.93;100.00;98423.09;5121997;28;20008;-61
2023/01/01 01:41:24;;;;;;;;;;;;;;;7.87;100.00;98424.84;5122137;28;19987;-61
2023/01/01 01:43:53;;;;;;;;;;;;;;;7.91;100.00;98433.97;5118523;28;19931;-60
2023/01/01 01:46:22;;;;;;;;;;;;;;;7.92;100.00;98426.81;5118424;28;19968;-59
2023/01/01 01:48:49;;;;;;;;;;;;;;;7.99;100.00;98424.81;5121803;28;19987;-60
2023/01/01 01:51:18;;;;;;;;;;;;;;;7.82;100.00;98424.75;5122141;28;19991;-60
2023/01/01 01:53:45;;;;;;;;;;;;;;;7.94;100.00;98430.84;5121243;27;20022;-60
2023/01/01 01:56:15;;;;;;;;;;;;;;;8.05;100.00;98431.88;5128623;27;19959;-60
2023/01/01 01:58:41;;;;;;;;;;;;;;;7.79;100.00;98419.91;5120565;28;19975;-60
2023/01/01 02:01:09;;;;;;;;;;;;;;;7.97;100.00;98427.72;5121763;28;20025;-60
2023/01/01 02:03:39;;;;;;;;;;;;;;;7.77;100.00;98421.16;5120051;28;19970;-60
2023/01/01 02:06:05;;;;;;;;;;;;;;;7.68;100.00;98420.69;5118089;28;19924;-60
2023/01/01 02:08:33;;;;;;;;;;;;;;;7.67;100.00;98427.06;5119183;28;19970;-60
2023/01/01 02:10:59;;;;;;;;;;;;;;;7.58;100.00;98423.16;5121162;28;19923;-59
2023/01/01 02:13:26;;;;;;;;;;;;;;;7.60;100.00;98426.38;5120928;28;19959;-60
2023/01/01 02:15:54;;;;;;;;;;;;;;;7.88;100.00;98433.63;5117849;28;20575;-60
2023/01/01 02:18:25;;;;;;;;;;;;;;;7.64;100.00;98422.22;5117996;28;19984;-60
2023/01/01 02:20:54;;;;;;;;;;;;;;;7.85;100.00;98434.09;5117513;28;20009;-60
2023/01/01 02:23:33;;;;;;;;;;;;;;;7.75;100.00;98436.53;5117604;28;19930;-60
2023/01/01 02:26:18;;;;;;;;;;;;;;;7.69;100.00;98426.81;5130972;27;19951;-60
2023/01/01 02:28:52;;;;;;;;;;;;;;;7.75;100.00;98423.25;5120516;28;19995;-60
2023/01/01 02:31:22;;;;;;;;;;;;;;;7.81;100.00;98419.66;5121223;28;19990;-61
2023/01/01 02:33:49;;;;;;;;;;;;;;;7.63;100.00;98409.97;5117693;28;19987;-60
2023/01/01 02:36:18;;;;;;;;;;;;;;;7.77;100.00;98405.22;5117732;28;20704;-61
2023/01/01 02:38:46;;;;;;;;;;;;;;;7.72;100.00;98416.53;5120442;28;19992;-60
2023/01/01 02:41:13;;;;;;;;;;;;;;;7.57;100.00;98417.00;5121041;28;19976;-60
2023/01/01 02:43:41;;;;;;;;;;;;;;;7.57;100.00;98401.06;5118399;28;20022;-60
2023/01/01 02:46:11;;;;;;;;;;;;;;;7.83;100.00;98415.72;5117688;28;19991;-60
2023/01/01 02:48:39;;;;;;;;;;;;;;;7.73;100.00;98412.03;5119447;28;20581;-60
2023/01/01 02:51:11;;;;;;;;;;;;;;;7.84;100.00;98412.00;5120517;28;19991;-62
2023/01/01 02:53:41;;;;;;;;;;;;;;;7.57;100.00;98413.53;5118981;28;19955;-61
2023/01/01 02:56:09;;;;;;;;;;;;;;;7.60;100.00;98411.22;5128772;27;19968;-61
2023/01/01 03:01:34;;;;;;;;;;;;;;;7.65;100.00;98412.38;5120545;28;19930;-60
2023/01/01 03:04:07;;;;;;;;;;;;;;;7.47;100.00;98395.50;5108814;28;19987;-60
2023/01/01 03:06:37;;;;;;;;;;;;;;;7.72;100.00;98402.44;5108689;28;19924;-60
2023/01/01 03:09:09;;;;;;;;;;;;;;;7.36;100.00;98400.81;5108691;28;19924;-60
2023/01/01 03:11:42;;;;;;;;;;;;;;;7.61;100.00;98407.50;5108431;28;19970;-60
2023/01/01 03:14:13;;;;;;;;;;;;;;;7.38;100.00;98406.72;5108542;28;19925;-60
2023/01/01 03:16:44;;;;;;;;;;;;;;;7.37;100.00;98405.91;5108756;28;20029;-60
2023/01/01 03:19:12;;;;;;;;;;;;;;;7.57;100.00;98409.03;5109025;28;19956;-61
2023/01/01 03:21:43;;;;;;;;;;;;;;;7.53;100.00;98410.53;5109019;28;19935;-60
2023/01/01 03:24:13;;;;;;;;;;;;;;;7.59;100.00;98409.59;5118717;28;19938;-61
2023/01/01 03:26:41;;;;;;;;;;;;;;;7.76;100.00;98411.56;5122041;28;19970;-60
2023/01/01 03:29:09;;;;;;;;;;;;;;;7.69;100.00;98421.50;5120709;28;20490;-60
2023/01/01 03:31:36;;;;;;;;;;;;;;;7.82;100.00;98421.28;5100898;28;19923;-60
2023/01/01 03:34:06;;;;;;;;;;;;;;;7.91;100.00;98419.88;5117245;28;19959;-59
2023/01/01 03:36:35;;;;;;;;;;;;;;;7.90;100.00;98420.91;5118393;28;19931;-59
2023/01/01 03:39:05;;;;;;;;;;;;;;;7.67;100.00;98423.59;5120766;28;19920;-60
2023/01/01 03:41:34;;;;;;;;;;;;;;;7.83;100.00;98433.53;5119523;28;19962;-60
2023/01/01 03:44:03;;;;;;;;;;;;;;;7.42;100.00;98414.00;5117179;28;20015;-60
2023/01/01 03:46:31;;;;;;;;;;;;;;;7.63;100.00;98430.41;5118086;28;19935;-60
2023/01/01 03:48:59;;;;;;;;;;;;;;;7.71;100.00;98443.34;5120381;28;19928;-60
2023/01/01 03:51:31;;;;;;;;;;;;;;;7.20;100.00;98426.22;5120105;28;19959;-60
2023/01/01 03:54:00;;;;;;;;;;;;;;;7.48;100.00;98429.03;5104502;28;20007;-60
2023/01/01 03:56:29;;;;;;;;;;;;;;;7.61;100.00;98426.13;5125479;28;19991;-60
2023/01/01 03:59:00;;;;;;;;;;;;;;;7.40;100.00;98436.50;5124081;28;19991;-60
2023/01/01 04:01:29;;;;;;;;;;;;;;;7.32;100.00;98445.63;5123671;28;20031;-60
2023/01/01 04:03:55;;;;;;;;;;;;;;;7.53;100.00;98442.41;5120434;28;20027;-60
2023/01/01 04:06:22;;;;;;;;;;;;;;;7.25;100.00;98436.97;5120734;28;19999;-59
2023/01/01 04:08:52;;;;;;;;;;;;;;;7.44;100.00;98438.50;5105887;28;19971;-61
2023/01/01 04:14:05;;;;;;;;;;;;;;;7.33;100.00;98435.81;5120612;28;19924;-60
2023/01/01 04:16:31;;;;;;;;;;;;;;;7.24;100.00;98448.59;5121570;28;19930;-60
2023/01/01 04:18:58;;;;;;;;;;;;;;;7.27;100.00;98434.09;5123923;28;19978;-60
2023/01/01 04:21:24;;;;;;;;;;;;;;;7.27;100.00;98442.06;5123677;28;19924;-59
2023/01/01 04:23:52;;;;;;;;;;;;;;;7.36;100.00;98441.50;5124459;27;19920;-60
2023/01/01 04:26:18;;;;;;;;;;;;;;;7.35;100.00;98450.50;5129159;27;19931;-60
2023/01/01 04:28:44;;;;;;;;;;;;;;;7.34;100.00;98442.75;5123145;28;19967;-59
2023/01/01 04:31:11;;;;;;;;;;;;;;;7.10;100.00;98436.59;5123743;28;19999;-60
2023/01/01 04:33:37;;;;;;;;;;;;;;;7.39;100.00;98450.84;5121416;28;19948;-60
2023/01/01 04:36:05;;;;;;;;;;;;;;;7.29;100.00;98448.75;5119867;28;19996;-61
2023/01/01 04:38:32;;;;;;;;;;;;;;;7.15;100.00;98447.31;5120883;28;20624;-62
2023/01/01 04:41:00;;;;;;;;;;;;;;;7.30;100.00;98458.34;5123215;28;19984;-61
2023/01/01 04:43:27;;;;;;;;;;;;;;;6.97;100.00;98431.47;5122720;28;20003;-61
2023/01/01 04:45:56;;;;;;;;;;;;;;;7.12;100.00;98450.44;5119586;28;19970;-60
2023/01/01 04:48:23;;;;;;;;;;;;;;;7.11;100.00;98459.47;5119552;28;19931;-60
2023/01/01 04:50:53;;;;;;;;;;;;;;;7.40;100.00;98463.09;5111063;28;20007;-61
2023/01/01 04:53:20;;;;;;;;;;;;;;;7.33;100.00;98457.09;5111118;28;19924;-60
2023/01/01 04:55:46;;;;;;;;;;;;;;;7.04;100.00;98470.19;5132778;27;19931;-61
2023/01/01 04:58:14;;;;;;;;;;;;;;;7.36;100.00;98473.38;5119596;28;19991;-61
2023/01/01 05:00:40;;;;;;;;;;;;;;;7.18;100.00;98462.81;5121421;28;19959;-61
2023/01/01 05:03:06;;;;;;;;;;;;;;;6.97;100.00;98482.72;5123037;28;19970;-60
2023/01/01 05:05:33;;;;;;;;;;;;;;;6.82;100.00;98473.56;5121500;28;20007;-60
2023/01/01 05:07:59;;;;;;;;;;;;;;;6.80;100.00;98472.97;5119213;28;19993;-60
2023/01/01 05:10:25;;;;;;;;;;;;;;;6.76;100.00;98485.06;5119531;28;19970;-59
2023/01/01 05:12:52;;;;;;;;;;;;;;;6.84;100.00;98479.47;5122719;28;19994;-60
2023/01/01 05:15:19;;;;;;;;;;;;;;;7.20;100.00;98474.03;5122707;28;19991;-60
2023/01/01 05:17:46;;;;;;;;;;;;;;;6.94;100.00;98477.88;5119495;28;19974;-61
2023/01/01 05:20:12;;;;;;;;;;;;;;;6.77;100.00;98476.91;5119111;28;20014;-60
2023/01/01 05:22:38;;;;;;;;;;;;;;;6.76;100.00;98479.75;5121212;28;19959;-59
2023/01/01 05:25:05;;;;;;;;;;;;;;;6.78;100.00;98483.81;5136034;27;19986;-60
2023/01/01 05:27:31;;;;;;;;;;;;;;;7.03;100.00;98500.41;5121461;28;19999;-60
2023/01/01 05:29:58;;;;;;;;;;;;;;;7.22;100.00;98498.50;5118777;28;20022;-60
2023/01/01 05:32:27;;;;;;;;;;;;;;;6.79;100.00;98503.19;5118733;28;19931;-60
2023/01/01 05:34:53;;;;;;;;;;;;;;;7.21;100.00;98506.72;5122092;28;19946;-60
2023/01/01 05:37:20;;;;;;;;;;;;;;;6.88;100.00;98505.31;5122017;28;19930;-60
2023/01/01 05:39:46;;;;;;;;;;;;;;;6.71;100.00;98500.88;5118803;28;19975;-59
2023/01/01 05:42:14;;;;;;;;;;;;;;;6.88;100.00;98501.84;5118395;28;19924;-60
2023/01/01 05:44:40;;;;;;;;;;;;;;;7.19;100.00;98514.91;5120757;28;19924;-60
2023/01/01 05:47:06;;;;;;;;;;;;;;;6.73;100.00;98504.09;5122041;28;19994;-61
2023/01/01 05:49:35;;;;;;;;;;;;;;;7.15;100.00;98519.03;5102509;28;19990;-61
2023/01/01 05:52:01;;;;;;;;;;;;;;;6.77;100.00;98508.75;5118468;28;20017;-61
2023/01/01 05:54:28;;;;;;;;;;;;;;;6.86;100.00;98519.88;5132287;27;19982;-60
2023/01/01 05:56:54;;;;;;;;;;;;;;;6.78;100.00;98522.81;5121935;28;19935;-60
2023/01/01 05:59:20;;;;;;;;;;;;;;;6.99;100.00;98532.97;5120926;28;19991;-60
2023/01/01 06:01:47;;;;;;;;;;;;;;;6.82;100.00;98519.50;5121177;28;19923;-59
2023/01/01 06:04:13;;;;;;;;;;;;;;;7.13;100.00;98526.44;5103598;28;19963;-60
2023/01/01 06:06:41;;;;;;;;;;;;;;;7.20;100.00;98529.81;5119270;28;20564;-60
2023/01/01 12:32:09;;;;;;;;;;;;;;;10.58;100.00;98568.59;5174930;27;19977;-60
2023/01/01 12:34:40;;;;;;;;;;;;;;;10.61;100.00;98568.09;5133505;28;19948;-60
2023/01/01 12:37:09;;;;;;;;;;;;;;;10.77;100.00;98559.19;5135110;28;19963;-60
2023/01/01 12:39:54;;;;;;;;;;;;;;;10.94;100.00;98553.81;5136399;28;19979;-60
2023/01/01 12:42:28;;;;;;;;;;;;;;;11.06;100.00;98556.34;5138357;27;19923;-60
2023/01/01 12:45:04;;;;;;;;;;;;;;;11.07;100.00;98549.94;5134937;27;19959;-60
2023/01/01 12:47:37;;;;;;;;;;;;;;;10.80;100.00;98550.69;5135243;28;19970;-61
2023/01/01 12:50:09;;;;;;;;;;;;;;;10.91;100.00;98553.50;5138280;27;19959;-60
2023/01/01 12:52:42;;;;;;;;;;;;;;;10.92;100.00;98555.13;5136932;27;19973;-60
2023/01/01 12:55:23;;;;;;;;;;;;;;;10.99;100.00;98545.84;5148100;27;19995;-60
2023/01/01 12:57:51;;;;;;;;;;;;;;;10.93;100.00;98540.69;5135076;27;19928;-60
2023/01/01 13:00:19;;;;;;;;;;;;;;;10.82;100.00;98532.56;5134756;28;19928;-60
2023/01/01 13:02:48;;;;;;;;;;;;;;;10.98;100.00;98540.75;5137428;28;20071;-60
2023/01/01 13:05:17;;;;;;;;;;;;;;;11.01;100.00;98530.38;5138425;27;19962;-60
2023/01/01 13:07:47;;;;;;;;;;;;;;;11.05;100.00;98528.00;5129857;27;19924;-60
2023/01/01 13:10:21;;;;;;;;;;;;;;;11.05;100.00;98526.13;5138528;27;19955;-59
2023/01/01 13:12:47;;;;;;;;;;;;;;;11.08;100.00;98530.19;5137645;27;20000;-60
2023/01/01 13:15:31;;;;;;;;;;;;;;;11.13;100.00;98519.53;5139576;28;19956;-59
2023/01/01 13:17:59;;;;;;;;;;;;;;;11.22;100.00;98520.69;5133120;28;19968;-59
2023/01/01 13:20:26;;;;;;;;;;;;;;;11.12;100.00;98528.59;5129080;28;19920;-60
2023/01/01 13:22:52;;;;;;;;;;;;;;;11.06;100.00;98529.59;5129134;28;19942;-60
2023/01/01 13:25:20;;;;;;;;;;;;;;;11.07;100.00;98531.22;5127992;28;19967;-60
2023/01/01 13:28:03;;;;;;;;;;;;;;;11.23;100.00;98525.00;5133893;28;19979;-59
2023/01/01 13:30:49;;;;;;;;;;;;;;;11.30;100.00;98520.22;5134602;28;19980;-60
2023/01/01 13:33:25;;;;;;;;;;;;;;;11.31;100.00;98524.53;5137701;27;20010;-61
2023/01/01 13:36:10;;;;;;;;;;;;;;;11.26;100.00;98516.47;5133715;28;19932;-60
2023/01/01 13:38:46;;;;;;;;;;;;;;;11.33;100.00;98522.41;5135396;27;19928;-60
2023/01/01 13:41:28;;;;;;;;;;;;;;;11.31;100.00;98516.50;5136388;27;19926;-61
2023/01/01 13:44:10;;;;;;;;;;;;;;;11.40;100.00;98520.34;5111443;28;19991;-61
2023/01/01 13:46:42;;;;;;;;;;;;;;;11.33;100.00;98512.53;5111199;28;20023;-60
2023/01/01 13:49:20;;;;;;;;;;;;;;;11.45;100.00;98514.25;5111204;28;20154;-62
2023/01/01 13:51:57;;;;;;;;;;;;;;;11.46;100.00;98522.00;5118415;28;19936;-61
2023/01/01 13:54:38;;;;;;;;;;;;;;;11.46;100.00;98516.66;5124590;27;19959;-60
2023/01/01 13:57:14;;;;;;;;;;;;;;;11.54;100.00;98521.56;5119584;28;19930;-61
2023/01/01 13:59:57;;;;;;;;;;;;;;;11.39;100.00;98527.56;5121608;28;19987;-61
2023/01/01 14:02:24;;;;;;;;;;;;;;;11.31;100.00;98529.88;5122895;28;19983;-62
2023/01/01 14:04:54;;;;;;;;;;;;;;;11.33;100.00;98525.06;5110698;28;19988;-60
2023/01/01 14:07:27;;;;;;;;;;;;;;;11.32;100.00;98526.16;5110998;28;19991;-60
2023/01/01 14:10:07;;;;;;;;;;;;;;;11.32;100.00;98526.97;5115202;28;20003;-60
2023/01/01 14:12:37;;;;;;;;;;;;;;;11.37;100.00;98523.53;5121693;27;19942;-61
2023/01/01 14:15:14;;;;;;;;;;;;;;;11.24;100.00;98529.25;5119245;28;19999;-60
2023/01/01 14:17:41;;;;;;;;;;;;;;;11.21;100.00;98527.09;5120964;28;19924;-60
2023/01/01 14:20:13;;;;;;;;;;;;;;;11.09;100.00;98527.25;5122484;28;19978;-61
2023/01/01 14:22:40;;;;;;;;;;;;;;;10.76;100.00;98522.06;5120399;28;20000;-61
2023/01/01 14:25:06;;;;;;;;;;;;;;;10.87;100.00;98523.78;5111851;28;19963;-61
2023/01/01 14:27:33;;;;;;;;;;;;;;;10.91;100.00;98532.13;5118781;28;20003;-60
2023/01/01 14:30:00;;;;;;;;;;;;;;;10.98;100.00;98519.38;5118795;28;20484;-61
2023/01/01 14:32:30;;;;;;;;;;;;;;;10.97;100.00;98515.06;5119024;28;19928;-61
2023/01/01 14:35:01;;;;;;;;;;;;;;;10.83;100.00;98520.81;5122467;28;19954;-60
2023/01/01 14:37:29;;;;;;;;;;;;;;;10.89;100.00;98527.03;5122312;27;19927;-61
2023/01/01 14:40:05;;;;;;;;;;;;;;;11.00;100.00;98525.25;5118832;28;19925;-61
2023/01/01 14:42:32;;;;;;;;;;;;;;;10.90;100.00;98531.31;5119574;28;19957;-61
2023/01/01 14:44:58;;;;;;;;;;;;;;;10.59;100.00;98532.78;5122260;28;19988;-60
2023/01/01 14:47:26;;;;;;;;;;;;;;;10.37;100.00;98533.84;5122176;28;19931;-61
2023/01/01 14:49:53;;;;;;;;;;;;;;;10.44;100.00;98531.78;5118609;27;19998;-60
2023/01/01 14:52:24;;;;;;;;;;;;;;;10.59;100.00;98531.97;5118498;28;19924;-60
2023/01/01 14:54:52;;;;;;;;;;;;;;;10.68;100.00;98536.66;5135012;27;19979;-60
2023/01/01 14:57:20;;;;;;;;;;;;;;;10.78;100.00;98541.31;5122276;28;19951;-61
2023/01/01 14:59:47;;;;;;;;;;;;;;;10.74;100.00;98541.00;5119072;28;19927;-61
2023/01/01 15:02:15;;;;;;;;;;;;;;;10.72;100.00;98540.44;5118503;28;19940;-60
2023/01/01 15:04:41;;;;;;;;;;;;;;;10.67;100.00;98537.72;5120372;28;19962;-61
2023/01/01 15:07:18;;;;;;;;;;;;;;;10.61;100.00;98552.06;5122048;28;19979;-61
2023/01/01 15:09:45;;;;;;;;;;;;;;;10.57;100.00;98548.25;5119074;28;19924;-61
2023/01/01 15:12:13;;;;;;;;;;;;;;;10.56;100.00;98543.16;5118444;28;20023;-61
2023/01/01 15:14:41;;;;;;;;;;;;;;;10.54;100.00;98553.28;5120441;28;19928;-61
2023/01/01 15:17:08;;;;;;;;;;;;;;;10.52;100.00;98553.53;5121910;28;19926;-61
2023/01/01 15:19:35;;;;;;;;;;;;;;;10.52;100.00;98550.84;5120782;28;19926;-60
2023/01/01 15:22:02;;;;;;;;;;;;;;;10.46;100.00;98538.47;5117235;28;19931;-62
2023/01/01 15:24:29;;;;;;;;;;;;;;;10.47;100.00;98542.78;5132745;27;20027;-61
2023/01/01 15:26:56;;;;;;;;;;;;;;;10.45;100.00;98546.75;5122075;28;20035;-61
2023/01/01 15:29:27;;;;;;;;;;;;;;;10.37;100.00;98539.19;5121756;28;19924;-61
2023/01/01 15:31:54;;;;;;;;;;;;;;;10.39;100.00;98542.41;5118178;28;19927;-61
2023/01/01 15:34:23;;;;;;;;;;;;;;;9.93;100.00;98540.91;5118400;28;19931;-61
2023/01/01 15:36:50;;;;;;;;;;;;;;;9.96;100.00;98540.41;5121437;28;19988;-60
2023/01/01 15:39:16;;;;;;;;;;;;;;;10.07;100.00;98544.84;5121710;28;20037;-60
2023/01/01 15:41:44;;;;;;;;;;;;;;;10.02;100.00;98532.25;5119088;28;19927;-61
2023/01/01 15:44:25;;;;;;;;;;;;;;;9.86;100.00;98537.56;5118144;28;19959;-61
2023/01/01 15:46:52;;;;;;;;;;;;;;;9.91;100.00;98533.13;5109628;28;20011;-60
2023/01/01 15:49:23;;;;;;;;;;;;;;;9.95;100.00;98530.78;5109617;28;19967;-60
2023/01/01 15:51:49;;;;;;;;;;;;;;;9.94;100.00;98537.97;5109620;28;19928;-61
2023/01/01 15:54:17;;;;;;;;;;;;;;;9.93;100.00;98536.38;5120562;27;19991;-60
2023/01/01 15:56:44;;;;;;;;;;;;;;;9.92;100.00;98536.59;5122190;27;19924;-61
2023/01/01 15:59:18;;;;;;;;;;;;;;;9.93;100.00;98539.03;5121540;28;19923;-60
2023/01/01 16:01:44;;;;;;;;;;;;;;;9.91;100.00;98543.78;5118572;28;19991;-61
2023/01/01 16:04:17;;;;;;;;;;;;;;;9.74;100.00;98541.13;5117912;28;20099;-60
2023/01/01 16:06:44;;;;;;;;;;;;;;;9.63;100.00;98542.00;5119997;28;19928;-61
2023/01/01 16:09:11;;;;;;;;;;;;;;;9.68;100.00;98546.63;5121073;28;19924;-60
2023/01/01 16:11:37;;;;;;;;;;;;;;;9.56;100.00;98543.22;5119277;28;19928;-60
2023/01/01 16:14:03;;;;;;;;;;;;;;;9.61;100.00;98541.44;5117486;28;19931;-60
2023/01/01 16:16:30;;;;;;;;;;;;;;;9.62;100.00;98545.72;5117909;28;19947;-61
2023/01/01 16:18:57;;;;;;;;;;;;;;;9.61;100.00;98532.63;5120811;28;20876;-60
2023/01/01 16:21:26;;;;;;;;;;;;;;;9.57;100.00;98529.63;5120481;28;20010;-61
2023/01/01 16:23:53;;;;;;;;;;;;;;;9.52;100.00;98524.22;5117313;28;19992;-62
2023/01/01 16:26:19;;;;;;;;;;;;;;;9.50;100.00;98528.97;5109049;28;20003;-61
2023/01/01 16:28:46;;;;;;;;;;;;;;;9.45;100.00;98525.41;5119974;28;19962;-61
2023/01/01 16:31:16;;;;;;;;;;;;;;;9.50;100.00;98522.84;5121036;28;19955;-60
2023/01/01 16:33:43;;;;;;;;;;;;;;;9.75;100.00;98515.25;5118448;28;19923;-62
2023/01/01 16:36:10;;;;;;;;;;;;;;;10.69;100.00;98516.09;5117426;28;19967;-60
2023/01/01 16:38:38;;;;;;;;;;;;;;;10.92;100.00;98510.50;5118809;28;19984;-61
2023/01/01 16:41:05;;;;;;;;;;;;;;;11.27;100.00;98502.03;5120898;28;19924;-61
2023/01/01 16:43:31;;;;;;;;;;;;;;;11.47;100.00;98507.56;5119985;28;20006;-61
2023/01/01 16:45:57;;;;;;;;;;;;;;;11.63;100.00;98498.63;5117368;28;19987;-60
2023/01/01 16:48:24;;;;;;;;;;;;;;;11.65;100.00;98501.84;5117166;28;19955;-60
2023/01/01 16:50:50;;;;;;;;;;;;;;;11.27;100.00;98508.19;5120542;28;19986;-60
2023/01/01 16:53:17;;;;;;;;;;;;;;;11.01;100.00;98508.19;5120741;28;20005;-61
2023/01/01 16:55:44;;;;;;;;;;;;;;;10.61;100.00;98512.00;5132249;27;19992;-61
2023/01/01 16:58:10;;;;;;;;;;;;;;;10.46;100.00;98511.00;5117490;28;19991;-62
2023/01/01 17:00:37;;;;;;;;;;;;;;;10.27;100.00;98505.13;5118494;28;20005;-60
2023/01/01 17:03:04;;;;;;;;;;;;;;;10.15;100.00;98509.78;5120430;28;19928;-61
2023/01/01 17:05:30;;;;;;;;;;;;;;;10.06;100.00;98513.84;5119794;28;19931;-59
2023/01/01 17:07:56;;;;;;;;;;;;;;;10.01;100.00;98513.78;5117027;28;19955;-60
2023/01/01 17:10:23;;;;;;;;;;;;;;;9.84;100.00;98513.78;5116934;28;19996;-60
2023/01/01 17:12:50;;;;;;;;;;;;;;;9.90;100.00;98522.72;5119919;28;19951;-59
2023/01/01 17:15:17;;;;;;;;;;;;;;;9.75;100.00;98529.41;5120418;28;19951;-62
2023/01/01 17:17:43;;;;;;;;;;;;;;;9.71;100.00;98522.97;5119670;28;19936;-58
2023/01/01 17:20:10;;;;;;;;;;;;;;;9.65;100.00;98521.25;5120741;28;19988;-61
2023/01/01 17:22:37;;;;;;;;;;;;;;;9.60;100.00;98518.50;5121854;28;19967;-60
2023/01/01 17:25:04;;;;;;;;;;;;;;;9.54;100.00;98518.63;5118613;28;19991;-59
2023/01/01 17:27:30;;;;;;;;;;;;;;;9.45;100.00;98526.22;5120403;28;20462;-60
2023/01/01 17:29:58;;;;;;;;;;;;;;;9.49;100.00;98526.56;5120433;28;19982;-59
2023/01/01 17:32:24;;;;;;;;;;;;;;;9.41;100.00;98527.75;5120586;28;19924;-59
2023/01/01 17:34:51;;;;;;;;;;;;;;;9.39;100.00;98524.53;5123465;28;20698;-60
2023/01/01 17:37:17;;;;;;;;;;;;;;;9.33;100.00;98522.81;5123612;28;19924;-59
2023/01/01 17:39:44;;;;;;;;;;;;;;;9.39;100.00;98527.19;5121213;28;19990;-60
2023/01/01 17:42:10;;;;;;;;;;;;;;;9.36;100.00;98533.00;5120125;28;19959;-59
2023/01/01 17:44:36;;;;;;;;;;;;;;;9.35;100.00;98528.72;5121701;28;19924;-58
2023/01/01 17:47:04;;;;;;;;;;;;;;;9.38;100.00;98535.41;5123750;28;19990;-60
2023/01/01 17:49:30;;;;;;;;;;;;;;;9.36;100.00;98533.00;5122935;28;19951;-60
2023/01/01 17:51:57;;;;;;;;;;;;;;;9.33;100.00;98530.81;5120204;28;19974;-61
2023/01/01 17:54:23;;;;;;;;;;;;;;;9.31;100.00;98530.25;5133444;27;19979;-60
2023/01/01 17:56:49;;;;;;;;;;;;;;;9.18;100.00;98514.56;5123248;27;19959;-61
2023/01/01 17:59:16;;;;;;;;;;;;;;;9.13;100.00;98525.91;5123450;27;19999;-60
2023/01/01 18:01:43;;;;;;;;;;;;;;;9.16;100.00;98524.63;5120835;28;19955;-60
2023/01/01 18:04:11;;;;;;;;;;;;;;;9.12;100.00;98520.84;5118239;28;19924;-59
2023/01/01 18:06:38;;;;;;;;;;;;;;;9.11;100.00;98521.88;5121312;28;20018;-60
2023/01/01 18:09:06;;;;;;;;;;;;;;;9.03;100.00;98516.94;5123102;28;19924;-60
2023/01/01 18:11:33;;;;;;;;;;;;;;;9.00;100.00;98518.22;5121880;28;19920;-60
2023/01/01 18:14:01;;;;;;;;;;;;;;;8.98;100.00;98519.50;5119306;28;20128;-59
2023/01/01 18:16:28;;;;;;;;;;;;;;;8.97;100.00;98513.38;5119704;28;19988;-60
2023/01/01 18:18:54;;;;;;;;;;;;;;;8.91;100.00;98521.50;5123017;28;19923;-60
2023/01/01 18:21:22;;;;;;;;;;;;;;;8.83;100.00;98512.03;5123019;28;19924;-59
2023/01/01 18:23:50;;;;;;;;;;;;;;;8.81;100.00;98513.31;5119534;28;19924;-59
2023/01/01 18:26:16;;;;;;;;;;;;;;;8.77;100.00;98514.81;5110789;28;19946;-60
2023/01/01 18:28:43;;;;;;;;;;;;;;;8.76;100.00;98510.56;5121451;28;20016;-59
2023/01/01 18:31:10;;;;;;;;;;;;;;;8.70;100.00;98501.63;5122619;28;19924;-65
2023/01/01 18:33:37;;;;;;;;;;;;;;;8.75;100.00;98487.63;5121089;28;19947;-60
2023/01/01 18:36:03;;;;;;;;;;;;;;;8.68;100.00;98501.09;5119276;28;19972;-60
2023/01/01 18:38:31;;;;;;;;;;;;;;;8.62;100.00;98500.19;5119381;28;19992;-60
2023/01/01 18:41:02;;;;;;;;;;;;;;;8.59;100.00;98505.16;5122334;28;19932;-59
2023/01/01 18:43:28;;;;;;;;;;;;;;;8.55;100.00;98496.81;5122091;28;20026;-61
2023/01/01 18:45:55;;;;;;;;;;;;;;;8.53;100.00;98490.94;5118908;28;19992;-60
2023/01/01 18:48:21;;;;;;;;;;;;;;;8.50;100.00;98488.75;5119005;28;20436;-59
2023/01/01 18:50:48;;;;;;;;;;;;;;;8.52;100.00;98486.66;5121936;28;20019;-60
2023/01/01 18:53:18;;;;;;;;;;;;;;;8.48;100.00;98482.06;5122581;28;20452;-60
2023/01/01 18:55:46;;;;;;;;;;;;;;;8.50;100.00;98488.75;5133745;27;19942;-60
2023/01/01 18:58:15;;;;;;;;;;;;;;;9.99;100.00;98478.56;5118978;28;19979;-58
2023/01/01 19:00:42;;;;;;;;;;;;;;;10.75;100.00;98472.34;5120768;28;19928;-59
2023/01/01 19:03:12;;;;;;;;;;;;;;;11.11;100.00;98481.56;5121943;28;19923;-59
2023/01/01 19:05:39;;;;;;;;;;;;;;;11.34;100.00;98478.56;5120406;28;19999;-59
2023/01/01 19:08:14;;;;;;;;;;;;;;;11.53;100.00;98470.97;5118627;28;20391;-59
2023/01/01 19:10:43;;;;;;;;;;;;;;;11.68;100.00;98471.09;5120568;28;20498;-61
2023/01/01 19:13:14;;;;;;;;;;;;;;;11.79;100.00;98468.25;5122269;28;19931;-60
2023/01/01 19:15:41;;;;;;;;;;;;;;;11.90;100.00;98471.81;5119912;28;19930;-60
2023/01/01 19:18:11;;;;;;;;;;;;;;;12.00;100.00;98471.91;5118346;28;19955;-60